Airfield :
LOGIN :

Register | Disclaimer

   EN    FR    IT 

 










Legend :    VFR   Marginal VFR   IFR   Intensive IFR   Very Intensive IFR
Visi :
Ceiling :
>= 8 km
>= 3000ft
5 to 8 km
1000 to 3000 ft
1500m to 5 km
500 to 1000 ft
800 to 1500m
200 to 500 ft
< 800m
< 200 ft
Symbols :   Thunderstorms  Fog  Heavy snow  Heavy precipitations  Wind > 20 kt
SIGMETs :     Misc.  Thunderstorms  Icing  Turbulence  Mountain Waves  Volcanic Ashes







- Airport Elevation : 39 ft
- IATA code : ANR


EBAW - Anvers / Antwerpen Deurne

CURRENT METAR :
  • 210250Z AUTO VRB01KT 7000 // NCD 13/12 Q1017

EXPIRED METARs :
  • 210220Z AUTO VRB01KT 3600 BR NCD 13/12 Q1017
  • 210150Z AUTO 00000KT 4000 BR NCD 11/11 Q1017
  • 210120Z AUTO 00000KT 5000 // NCD 13/12 Q1018
  • 210050Z AUTO 34001KT 3900 // NCD 13/12 Q1018
  • 210020Z AUTO 25001KT 8000 // NCD 14/12 Q1018

TAF TAF EBAW
Valid from the 21 at 03:00 until the 21 at 12:00 UTC


210210Z 2103/2112 05004KT 9999 FEW040
No reported NOTAMs for that airfield.



MET'MAP, your aeronautical weather chart ! - Copyright ORBIFLY December 2007 - Disclaimer

ORBIFLY MET'MAP TEAM :

Programming & Development : Alexandra Zaïnal
Concept & Development : Baudouin d'Aumeries
Co-Development & Prog : Marc-Olivier Méhu
Technical & hardware support : Manuel Goepfert

Contact : metmap@orbifly.com




SOURCES & CREDITS :

   NOAA